Time;durP1;ratioP1;P1;durP2;ratioP2;P2;SDS_P1;SDS_P2;PMS_P1;PMS_P2;Temp;Humidity;BMP_temperature;BMP_pressure;BME280_temperature;BME280_humidity;BME280_pressure;Samples;Min_cycle;Max_cycle;Signal;HPM_P1;HPM_P2
2021/04/05 00:01:32;;;;;;;63.92;37.10;;;;;;;3.29;84.45;99502.77;1799319;78;21383;-47
2021/04/05 00:04:03;;;;;;;61.88;36.95;;;;;;;3.30;84.50;99504.52;1799019;78;21068;-51
2021/04/05 00:08:59;;;;;;;65.40;37.13;;;;;;;3.37;84.59;99496.81;1748724;79;23303;-47
2021/04/05 00:11:29;;;;;;;58.75;36.42;;;;;;;3.31;84.63;99500.97;1721960;82;20987;-49
2021/04/05 00:13:57;;;;;;;70.87;38.05;;;;;;;3.30;84.63;99503.19;1717566;82;21439;-47
2021/04/05 00:16:27;;;;;;;62.50;34.67;;;;;;;3.29;84.60;99492.98;1717337;82;21682;-51
2021/04/05 00:18:57;;;;;;;69.60;38.23;;;;;;;3.29;84.69;99497.45;1716639;82;21057;-52
2021/04/05 00:21:27;;;;;;;66.70;39.27;;;;;;;3.29;84.71;99498.78;1717345;82;20987;-53
2021/04/05 00:23:56;;;;;;;68.45;37.42;;;;;;;3.29;84.71;99486.78;1717391;82;21148;-42
2021/04/05 00:26:26;;;;;;;65.65;38.75;;;;;;;3.26;84.76;99489.55;1716323;82;20998;-42
2021/04/05 00:28:54;;;;;;;73.90;42.25;;;;;;;3.24;84.81;99481.56;1700787;82;21569;-43
2021/04/05 00:31:22;;;;;;;75.47;41.28;;;;;;;3.22;84.80;99479.88;1716286;82;20986;-42
2021/04/05 00:33:50;;;;;;;67.82;39.33;;;;;;;3.20;84.71;99477.71;1716154;82;21575;-43
2021/04/05 00:36:18;;;;;;;66.82;39.98;;;;;;;3.17;84.86;99475.98;1715948;82;21125;-43
2021/04/05 00:38:46;;;;;;;66.02;39.13;;;;;;;3.18;85.01;99482.18;1717282;83;21420;-43
2021/04/05 00:41:15;;;;;;;73.47;41.40;;;;;;;3.18;85.04;99472.86;1716748;82;21791;-44
2021/04/05 00:43:47;;;;;;;68.28;40.25;;;;;;;3.19;85.09;99474.60;1716346;82;21029;-44
2021/04/05 00:46:24;;;;;;;71.80;39.27;;;;;;;3.17;85.13;99471.11;1717629;82;21126;-44
2021/04/05 00:48:52;;;;;;;67.95;38.02;;;;;;;3.17;85.24;99476.44;1716411;83;21546;-44
2021/04/05 00:51:24;;;;;;;65.40;38.80;;;;;;;3.17;85.27;99465.78;1717074;82;21491;-44
2021/04/05 00:53:53;;;;;;;58.30;34.90;;;;;;;3.15;85.33;99477.36;1716781;82;21593;-47
2021/04/05 00:56:24;;;;;;;72.30;41.13;;;;;;;3.15;85.35;99469.37;1716677;82;21022;-47
2021/04/05 00:58:52;;;;;;;;;;;;;;;3.14;85.33;99475.62;1719723;82;21385;-48
2021/04/05 01:01:25;;;;;;;72.30;40.52;;;;;;;3.12;85.29;99474.76;1716537;82;20263;-47
2021/04/05 01:03:52;;;;;;;;;;;;;;;3.10;85.26;99471.27;1718841;83;21399;-47
2021/04/05 01:06:26;;;;;;;72.12;40.88;;;;;;;3.10;85.45;99468.60;1717408;82;20574;-48
2021/04/05 01:08:54;;;;;;;64.82;38.78;;;;;;;3.09;85.51;99469.52;1717594;82;21669;-48
2021/04/05 01:11:28;;;;;;;73.47;39.73;;;;;;;3.09;85.56;99462.86;1716986;82;20989;-47
2021/04/05 01:13:57;;;;;;;60.55;35.45;;;;;;;3.08;85.63;99462.42;1718089;83;20986;-47
2021/04/05 01:16:29;;;;;;;60.33;33.98;;;;;;;3.09;85.76;99460.20;1718250;82;21403;-49
2021/04/05 01:18:58;;;;;;;71.62;39.80;;;;;;;3.08;85.85;99457.09;1717055;82;21052;-46
2021/04/05 01:21:26;;;;;;;65.45;36.68;;;;;;;3.08;85.81;99465.08;1716792;82;21161;-47
2021/04/05 01:23:55;;;;;;;63.52;35.80;;;;;;;3.08;85.81;99449.56;1716949;82;21140;-46
2021/04/05 01:26:23;;;;;;;70.25;35.80;;;;;;;3.09;85.90;99465.53;1716985;82;21129;-47
2021/04/05 01:28:51;;;;;;;57.17;34.05;;;;;;;3.09;85.87;99464.62;1717562;82;21360;-46
2021/04/05 01:31:19;;;;;;;68.55;37.20;;;;;;;3.09;85.81;99457.53;1717658;82;21063;-47
2021/04/05 01:33:48;;;;;;;67.15;34.40;;;;;;;3.08;85.81;99455.76;1716827;82;21132;-47
2021/04/05 01:36:17;;;;;;;64.40;34.30;;;;;;;3.08;85.79;99454.42;1716902;82;20998;-46
2021/04/05 01:38:50;;;;;;;55.73;33.65;;;;;;;3.09;85.82;99460.63;1717262;83;21184;-44
2021/04/05 01:41:28;;;;;;;59.90;34.58;;;;;;;3.07;85.71;99447.35;1716742;82;20970;-44
2021/04/05 01:43:56;;;;;;;61.75;35.63;;;;;;;3.08;85.71;99442.90;1717351;82;21129;-45
2021/04/05 01:46:28;;;;;;;60.95;34.90;;;;;;;3.08;85.69;99446.44;1717535;82;21534;-44
2021/04/05 01:49:00;;;;;;;59.53;33.58;;;;;;;3.08;85.68;99442.44;1716650;82;21548;-45
2021/04/05 01:51:36;;;;;;;57.27;34.23;;;;;;;3.13;85.72;99439.20;1806370;76;22682;-44
2021/04/05 01:54:05;;;;;;;59.13;35.45;;;;;;;3.06;85.71;99440.28;1756225;80;21017;-44
2021/04/05 01:56:33;;;;;;;57.00;34.00;;;;;;;3.05;85.74;99423.89;1758832;79;21374;-43
2021/04/05 01:59:01;;;;;;;59.85;34.55;;;;;;;3.05;85.73;99431.88;1756538;79;21009;-45
2021/04/05 02:01:31;;;;;;;63.68;36.23;;;;;;;3.07;85.63;99435.83;1759448;80;21358;-45
2021/04/05 02:04:01;;;;;;;69.60;40.15;;;;;;;3.06;85.61;99436.28;1755200;79;20977;-45
2021/04/05 02:06:31;;;;;;;77.90;40.90;;;;;;;3.02;85.33;99429.27;1756402;78;20991;-44
2021/04/05 02:09:00;;;;;;;81.30;43.78;;;;;;;2.98;85.24;99428.92;1756807;79;21336;-43
2021/04/05 02:11:37;;;;;;;79.15;42.30;;;;;;;2.92;85.09;99425.09;1757338;79;21582;-44
2021/04/05 02:14:08;;;;;;;74.05;42.23;;;;;;;2.88;85.19;99428.77;1757734;79;20995;-44
2021/04/05 02:16:36;;;;;;;71.28;38.38;;;;;;;2.85;85.19;99434.15;1753071;79;21421;-44
2021/04/05 02:19:05;;;;;;;58.30;34.67;;;;;;;2.82;85.28;99424.89;1761376;80;21108;-44
2021/04/05 02:21:33;;;;;;;62.67;35.13;;;;;;;2.81;85.35;99425.81;1753179;79;21129;-44
2021/04/05 02:24:05;;;;;;;71.60;40.03;;;;;;;2.82;85.41;99426.22;1754124;79;21695;-44
2021/04/05 02:26:35;;;;;;;78.40;40.50;;;;;;;2.82;85.38;99427.55;1762196;79;21021;-45
2021/04/05 02:29:04;;;;;;;89.80;47.48;;;;;;;2.79;85.29;99427.64;1755486;80;21295;-45
2021/04/05 02:31:34;;;;;;;80.05;40.65;;;;;;;2.76;85.17;99430.36;1756982;80;21152;-45
2021/04/05 02:34:04;;;;;;;71.70;41.43;;;;;;;2.71;85.19;99429.59;1758128;79;21388;-45
2021/04/05 02:36:33;;;;;;;71.57;41.92;;;;;;;2.69;85.21;99428.77;1760386;79;21151;-46
2021/04/05 02:39:08;;;;;;;76.75;43.10;;;;;;;2.65;85.28;99427.08;1754785;79;21175;-45
2021/04/05 02:41:40;;;;;;;68.37;40.25;;;;;;;2.62;85.42;99431.58;1758345;79;21542;-44
2021/04/05 02:44:09;;;;;;;90.72;47.08;;;;;;;2.62;85.62;99426.25;1748564;80;21088;-45
2021/04/05 02:46:39;;;;;;;73.70;42.95;;;;;;;2.56;85.50;99411.77;1756210;78;22173;-44
2021/04/05 02:49:13;;;;;;;79.53;43.65;;;;;;;2.53;85.64;99421.59;1754175;80;21132;-43
2021/04/05 02:51:46;;;;;;;79.00;44.83;;;;;;;2.50;85.79;99411.88;1771021;79;21154;-45
2021/04/05 02:54:14;;;;;;;90.40;47.43;;;;;;;2.48;85.86;99417.70;1780391;78;21099;-43
2021/04/05 02:56:42;;;;;;;79.92;43.87;;;;;;;2.43;85.78;99423.59;1773359;78;20989;-43
2021/04/05 02:59:10;;;;;;;86.60;49.55;;;;;;;2.39;85.86;99423.23;1769407;79;21362;-43
2021/04/05 03:01:39;;;;;;;92.37;49.23;;;;;;;2.27;86.13;99422.18;1772814;78;21683;-44
2021/04/05 03:04:07;;;;;;;103.85;52.53;;;;;;;2.22;86.51;99416.95;1770988;78;21178;-43
2021/04/05 03:06:35;;;;;;;94.55;51.15;;;;;;;2.16;86.53;99414.89;1773705;79;21683;-45
2021/04/05 03:09:07;;;;;;;86.53;49.95;;;;;;;2.10;86.72;99407.46;1750114;79;21123;-44
2021/04/05 03:11:36;;;;;;;90.80;50.48;;;;;;;2.12;87.02;99407.88;1771473;78;21582;-44
2021/04/05 03:14:08;;;;;;;86.00;47.65;;;;;;;2.12;87.11;99412.73;1759023;80;21593;-44
2021/04/05 03:16:38;;;;;;;106.20;55.83;;;;;;;2.12;87.14;99414.53;1761793;80;21160;-45
2021/04/05 03:19:06;;;;;;;83.07;47.08;;;;;;;2.07;87.10;99408.84;1759121;78;21103;-47
2021/04/05 03:21:34;;;;;;;97.78;54.25;;;;;;;2.06;87.35;99405.77;1759186;80;21526;-47
2021/04/05 03:24:02;;;;;;;88.82;45.45;;;;;;;2.05;87.29;99400.03;1758665;78;21508;-48
2021/04/05 03:26:30;;;;;;;77.00;44.48;;;;;;;2.03;87.36;99400.53;1757186;80;21180;-46
2021/04/05 03:28:58;;;;;;;78.35;47.10;;;;;;;2.01;87.43;99406.32;1761961;78;21148;-47
2021/04/05 03:31:27;;;;;;;88.40;51.15;;;;;;;2.00;87.54;99405.91;1763889;78;21537;-48
2021/04/05 03:34:18;;;;;;;104.47;54.85;;;;;;;1.98;87.49;99409.06;1756728;78;21567;-45
2021/04/05 03:37:01;;;;;;;84.75;48.45;;;;;;;1.98;87.69;99398.42;1760882;80;21366;-45
2021/04/05 03:39:30;;;;;;;91.60;50.30;;;;;;;2.01;87.91;99405.45;1757152;80;21014;-45
2021/04/05 03:42:06;;;;;;;89.90;50.05;;;;;;;2.03;87.84;99400.99;1757756;79;21158;-45
2021/04/05 03:44:42;;;;;;;82.80;46.63;;;;;;;2.04;87.88;99402.28;1758583;78;21096;-45
2021/04/05 03:47:51;;;;;;;83.82;46.53;;;;;;;2.14;88.00;99396.77;1809276;78;22652;-43
2021/04/05 03:50:35;;;;;;;85.17;46.60;;;;;;;2.12;87.97;99395.91;1773729;80;21119;-44
2021/04/05 03:53:40;;;;;;;78.35;43.25;;;;;;;2.17;88.02;99384.72;1826816;75;22775;-43
2021/04/05 03:56:17;;;;;;;88.95;48.08;;;;;;;2.13;88.10;99392.33;1807295;77;20987;-43
2021/04/05 03:58:54;;;;;;;103.02;52.95;;;;;;;2.19;88.18;99388.23;1817149;76;22803;-43
2021/04/05 04:01:25;;;;;;;;;;;;;;;2.15;88.22;99400.72;1801642;77;20990;-42
2021/04/05 04:04:01;;;;;;;131.67;68.15;;;;;;;2.15;88.04;99399.84;1758420;79;21266;-43
2021/04/05 04:06:33;;;;;;;120.20;64.47;;;;;;;2.15;87.99;99399.84;1759929;79;20961;-43
2021/04/05 04:08:57;;;;;;;110.32;59.53;;;;;;;2.16;87.92;99388.30;1760097;80;21013;-47
2021/04/05 04:11:27;;;;;;;119.87;64.17;;;;;;;2.17;87.89;99385.59;1730040;80;21143;-47
2021/04/05 04:13:56;;;;;;;150.10;70.35;;;;;;;2.19;87.78;99385.58;1758122;79;21548;-47
2021/04/05 04:16:24;;;;;;;115.00;62.48;;;;;;;2.23;87.88;99384.58;1757077;79;21378;-48
2021/04/05 04:18:53;;;;;;;129.42;70.60;;;;;;;2.27;87.77;99382.27;1757921;78;21798;-47
2021/04/05 04:21:21;;;;;;;128.35;67.22;;;;;;;2.28;87.53;99382.69;1708863;79;21175;-47
2021/04/05 04:23:49;;;;;;;129.38;68.78;;;;;;;2.28;87.51;99386.22;1761474;78;21755;-48
2021/04/05 04:26:17;;;;;;;82.57;47.13;;;;;;;2.32;87.53;99384.37;1759493;79;21122;-48
2021/04/05 04:28:46;;;;;;;86.02;48.28;;;;;;;2.38;87.79;99380.23;1756099;78;22107;-48
2021/04/05 04:31:14;;;;;;;131.80;72.97;;;;;;;2.48;87.78;99386.23;1756473;79;21786;-47
2021/04/05 04:33:42;;;;;;;96.53;52.90;;;;;;;2.54;87.56;99380.30;1756826;78;21124;-47
2021/04/05 04:36:10;;;;;;;87.65;47.90;;;;;;;2.58;87.34;99376.66;1760466;79;21569;-47
2021/04/05 04:38:38;;;;;;;100.55;57.35;;;;;;;2.63;87.25;99372.10;1761258;80;21005;-48
2021/04/05 04:41:06;;;;;;;124.45;67.58;;;;;;;2.70;87.16;99363.95;1762583;79;21424;-47
2021/04/05 04:43:34;;;;;;;166.35;85.45;;;;;;;2.75;86.89;99362.06;1758028;79;21140;-49
2021/04/05 04:46:02;;;;;;;171.43;85.55;;;;;;;2.75;86.61;99362.06;1757350;78;21005;-48
2021/04/05 04:48:30;;;;;;;156.70;85.65;;;;;;;2.74;86.57;99358.98;1758963;79;20985;-48
2021/04/05 04:50:58;;;;;;;157.37;84.35;;;;;;;2.75;86.52;99362.06;1759372;79;21178;-47
2021/04/05 04:53:26;;;;;;;141.25;75.32;;;;;;;2.78;86.48;99360.66;1757084;79;21199;-48
2021/04/05 04:55:54;;;;;;;112.55;61.98;;;;;;;2.82;86.60;99363.64;1755314;78;20993;-47
2021/04/05 04:58:22;;;;;;;129.38;68.33;;;;;;;2.88;86.57;99353.73;1756997;78;21253;-47
2021/04/05 05:00:50;;;;;;;118.17;63.10;;;;;;;2.96;86.41;99356.65;1771230;78;21167;-49
2021/04/05 05:03:19;;;;;;;105.03;59.30;;;;;;;3.00;86.19;99357.87;1762789;78;20922;-47
2021/04/05 05:05:46;;;;;;;102.12;55.25;;;;;;;3.03;86.00;99349.77;1762569;79;21369;-47
2021/04/05 05:08:15;;;;;;;102.65;56.45;;;;;;;3.07;85.95;99347.92;1762139;79;21155;-48
2021/04/05 05:10:45;;;;;;;92.78;49.48;;;;;;;3.12;85.83;99341.55;1748706;80;21008;-48
2021/04/05 05:13:13;;;;;;;76.97;42.62;;;;;;;3.19;85.56;99344.05;1758486;78;21108;-49
2021/04/05 05:15:42;;;;;;;55.25;30.50;;;;;;;3.21;85.12;99350.23;1747501;80;21112;-47
2021/04/05 05:18:10;;;;;;;43.10;25.25;;;;;;;3.22;84.11;99342.64;1758785;79;21476;-49
2021/04/05 05:20:38;;;;;;;33.70;22.05;;;;;;;3.22;83.58;99343.98;1762690;78;21136;-47
2021/04/05 05:23:05;;;;;;;32.40;20.25;;;;;;;3.23;82.56;99336.39;1758516;79;21541;-47
2021/04/05 05:25:33;;;;;;;36.40;19.62;;;;;;;3.22;81.99;99339.52;1746617;80;21136;-48
2021/04/05 05:28:07;;;;;;;28.55;19.23;;;;;;;3.22;81.16;99338.65;1758327;79;21108;-48
2021/04/05 05:30:36;;;;;;;31.17;17.73;;;;;;;3.23;80.80;99338.59;1760462;79;21199;-49
2021/04/05 05:33:05;;;;;;;27.20;18.02;;;;;;;3.25;80.39;99344.78;1760852;78;21128;-49
2021/04/05 05:35:34;;;;;;;30.70;17.32;;;;;;;3.28;80.00;99338.47;1758127;79;21157;-48
2021/04/05 05:38:04;;;;;;;27.15;18.07;;;;;;;3.30;79.61;99337.96;1760446;78;21136;-48
2021/04/05 05:40:34;;;;;;;27.48;17.00;;;;;;;3.35;79.29;99338.71;1756550;79;21119;-48
2021/04/05 05:43:46;;;;;;;25.90;16.95;;;;;;;3.38;78.99;99338.64;1759073;79;21009;-49
2021/04/05 05:46:35;;;;;;;26.33;17.35;;;;;;;3.50;78.45;99328.95;1799484;76;28637;-48
2021/04/05 05:49:35;;;;;;;26.02;16.27;;;;;;;3.57;77.98;99329.22;1787963;77;20950;-48
2021/04/05 05:52:54;;;;;;;20.85;14.28;;;;;;;3.79;77.31;99327.27;1824902;77;22771;-48
2021/04/05 05:55:56;;;;;;;27.90;15.85;;;;;;;3.82;76.88;99321.81;1794288;78;21094;-48
2021/04/05 05:58:30;;;;;;;;;;;;;;;3.93;76.62;99311.70;1795448;78;21355;-48
2021/04/05 06:01:33;;;;;;;22.93;14.20;;;;;;;4.05;76.29;99315.34;1793747;78;20182;-46
2021/04/05 06:04:51;;;;;;;26.27;13.60;;;;;;;4.23;75.77;99306.34;1806750;76;22815;-46
2021/04/05 06:07:26;;;;;;;20.32;13.05;;;;;;;4.26;74.87;99306.23;1784751;77;20970;-46
2021/04/05 06:10:11;;;;;;;19.65;11.25;;;;;;;4.33;74.21;99300.66;1771351;79;21441;-51
2021/04/05 06:13:15;;;;;;;17.85;11.38;;;;;;;4.42;72.71;99305.72;1773656;79;21116;-45
2021/04/05 06:16:11;;;;;;;16.67;10.18;;;;;;;4.51;71.80;99299.18;1773763;79;21546;-46
2021/04/05 06:19:10;;;;;;;19.00;10.32;;;;;;;4.58;70.85;99300.74;1772337;79;20918;-46
2021/04/05 06:21:58;;;;;;;17.75;12.05;;;;;;;4.67;70.22;99300.41;1772442;80;20958;-45
2021/04/05 06:24:45;;;;;;;23.38;12.50;;;;;;;4.77;69.65;99296.11;1773276;79;21024;-47
2021/04/05 06:27:48;;;;;;;18.20;11.40;;;;;;;4.84;69.31;99298.97;1771820;79;21502;-47
2021/04/05 06:30:33;;;;;;;15.65;10.90;;;;;;;4.90;68.67;99290.73;1773021;80;21542;-45
2021/04/05 06:33:30;;;;;;;18.25;11.22;;;;;;;5.03;67.96;99290.73;1778379;77;23390;-45
2021/04/05 06:36:16;;;;;;;16.17;10.40;;;;;;;5.06;67.82;99293.31;1750790;80;21179;-50
2021/04/05 06:38:48;;;;;;;18.70;10.50;;;;;;;5.12;67.53;99290.42;1749377;79;21194;-48
2021/04/05 06:41:31;;;;;;;;;;;;;;;5.19;67.01;99293.27;1754735;80;21469;-57
2021/04/05 06:44:50;;;;;;;16.60;10.78;;;;;;;5.29;66.73;99290.27;1749323;79;20165;-50
2021/04/05 06:47:52;;;;;;;20.62;10.48;;;;;;;5.36;66.35;99294.46;1752820;79;20952;-55
2021/04/05 06:51:01;;;;;;;16.48;9.60;;;;;;;5.50;65.61;99300.19;1817085;77;22799;-53
2021/04/05 06:54:10;;;;;;;31.30;18.00;;;;;;;5.51;65.39;99301.92;1794653;78;21586;-49
2021/04/05 06:57:11;;;;;;;14.75;8.75;;;;;;;5.58;64.37;99297.21;1790894;78;22889;-52
2021/04/05 07:00:07;;;;;;;12.03;7.80;;;;;;;5.68;63.58;99291.46;1791544;78;21054;-57
2021/04/05 07:02:56;;;;;;;13.03;7.58;;;;;;;5.78;62.62;99286.64;1792892;78;21002;-53
2021/04/05 07:05:49;;;;;;;41.20;10.72;;;;;;;5.88;62.06;99293.39;1793885;78;21137;-53
2021/04/05 07:08:41;;;;;;;13.80;8.18;;;;;;;5.97;61.38;99294.88;1792412;78;21616;-54
2021/04/05 07:11:25;;;;;;;12.88;7.60;;;;;;;6.02;60.34;99291.56;1791449;79;21335;-53
2021/04/05 07:14:24;;;;;;;16.90;7.53;;;;;;;6.09;60.24;99287.70;1793567;78;20969;-52
2021/04/05 07:17:22;;;;;;;12.05;7.58;;;;;;;6.17;59.35;99285.57;1790155;78;21020;-52
2021/04/05 07:20:00;;;;;;;22.27;9.53;;;;;;;6.26;58.59;99279.86;1790668;78;21676;-53
2021/04/05 07:23:09;;;;;;;17.25;9.45;;;;;;;6.32;58.70;99272.52;1788515;78;21109;-51
2021/04/05 07:26:25;;;;;;;16.70;11.37;;;;;;;6.43;58.88;99271.60;1840942;76;27841;-52
2021/04/05 07:29:03;;;;;;;19.42;10.08;;;;;;;6.47;59.28;99271.89;1763426;78;20965;-52
2021/04/05 07:32:27;;;;;;;17.87;10.08;;;;;;;6.55;59.23;99271.09;1768468;79;21648;-55
2021/04/05 07:35:20;;;;;;;15.90;10.10;;;;;;;6.63;58.83;99274.33;1792718;78;21007;-52
2021/04/05 07:38:08;;;;;;;14.70;9.28;;;;;;;6.71;58.78;99262.84;1797332;78;21015;-50
2021/04/05 07:40:50;;;;;;;18.82;10.80;;;;;;;6.78;58.16;99261.63;1797669;78;20935;-55
2021/04/05 07:43:31;;;;;;;16.80;9.88;;;;;;;6.81;58.10;99257.45;1798818;78;20993;-53
2021/04/05 07:46:31;;;;;;;17.40;9.48;;;;;;;6.87;57.30;99255.45;1798553;78;21360;-54
2021/04/05 07:49:22;;;;;;;14.28;8.93;;;;;;;6.96;57.43;99255.06;1793400;78;21014;-50
2021/04/05 07:51:57;;;;;;;14.20;9.00;;;;;;;7.03;57.04;99248.48;1766788;79;21581;-50
2021/04/05 07:54:27;;;;;;;18.50;10.10;;;;;;;7.11;57.07;99249.03;1795417;78;21656;-51
2021/04/05 07:57:12;;;;;;;12.73;8.08;;;;;;;7.18;56.15;99245.13;1796669;78;21126;-48
2021/04/05 08:00:00;;;;;;;12.60;7.75;;;;;;;7.18;55.11;99238.91;1757485;79;21380;-50
2021/04/05 08:02:57;;;;;;;13.75;9.08;;;;;;;7.16;53.79;99238.98;1774533;80;21176;-55
2021/04/05 08:06:01;;;;;;;21.50;9.40;;;;;;;7.17;54.15;99226.44;1773226;79;21691;-51
2021/04/05 08:08:55;;;;;;;18.12;10.30;;;;;;;7.20;54.16;99224.50;1769211;79;21017;-52
2021/04/05 08:11:52;;;;;;;16.17;9.80;;;;;;;7.28;54.27;99214.28;1768989;79;21533;-53
2021/04/05 08:14:51;;;;;;;16.25;10.82;;;;;;;7.38;54.23;99217.42;1770935;79;21365;-51
2021/04/05 08:17:41;;;;;;;22.70;11.50;;;;;;;7.51;54.33;99212.34;1770392;80;21049;-52
2021/04/05 08:20:39;;;;;;;19.37;11.68;;;;;;;7.60;54.04;99195.83;1772418;80;21128;-56
2021/04/05 08:23:38;;;;;;;27.45;17.32;;;;;;;7.62;53.98;99196.64;1766267;79;21706;-56
2021/04/05 08:26:28;;;;;;;19.52;12.58;;;;;;;7.69;53.58;99188.69;1763071;80;21537;-56
2021/04/05 08:29:22;;;;;;;16.02;10.20;;;;;;;7.78;52.91;99188.73;1766643;79;21352;-58
2021/04/05 08:32:15;;;;;;;17.82;10.18;;;;;;;7.85;52.26;99177.61;1740471;78;21013;-56
2021/04/05 08:35:23;;;;;;;16.32;9.25;;;;;;;7.96;51.26;99188.31;1798526;78;21096;-57
2021/04/05 08:38:20;;;;;;;13.80;8.40;;;;;;;8.01;50.08;99172.84;1765143;78;21126;-53
2021/04/05 08:41:26;;;;;;;12.33;6.85;;;;;;;8.02;49.03;99174.58;1770519;79;20971;-55
2021/04/05 08:44:04;;;;;;;13.25;7.95;;;;;;;8.03;47.71;99174.97;1756442;78;21393;-56
2021/04/05 08:46:32;;;;;;;16.05;8.50;;;;;;;8.01;47.96;99168.81;1757287;80;21128;-55
2021/04/05 08:49:03;;;;;;;10.98;6.85;;;;;;;8.05;47.94;99161.02;1765868;79;21325;-56
2021/04/05 08:51:42;;;;;;;13.30;6.95;;;;;;;8.15;47.30;99160.96;1762643;80;21813;-57
2021/04/05 08:54:10;;;;;;;14.10;7.97;;;;;;;8.27;46.69;99158.12;1759752;80;20955;-56
2021/04/05 08:56:54;;;;;;;7.75;5.90;;;;;;;8.35;46.64;99158.11;1760412;80;21173;-48
2021/04/05 08:59:30;;;;;;;10.23;4.75;;;;;;;8.47;45.94;99158.47;1790875;78;21019;-50
2021/04/05 09:02:06;;;;;;;6.87;4.50;;;;;;;8.57;44.51;99147.16;1791286;78;21179;-47
2021/04/05 09:04:42;;;;;;;6.10;3.77;;;;;;;8.76;43.30;99130.95;1806995;77;22690;-49
2021/04/05 09:07:52;;;;;;;6.28;3.60;;;;;;;8.81;43.00;99128.90;1788116;79;20973;-47
2021/04/05 09:10:29;;;;;;;6.17;3.50;;;;;;;8.92;43.06;99131.88;1774566;79;21652;-49
2021/04/05 09:12:58;;;;;;;7.60;3.72;;;;;;;9.10;41.88;99121.94;1774687;79;21585;-49
2021/04/05 09:15:37;;;;;;;5.75;2.92;;;;;;;9.16;41.64;99114.01;1774271;79;21025;-48
2021/04/05 09:18:27;;;;;;;5.50;3.47;;;;;;;9.21;41.13;99117.32;1775358;79;20970;-48
2021/04/05 09:21:33;;;;;;;5.47;3.25;;;;;;;9.28;41.45;99103.94;1774490;79;21024;-51
2021/04/05 09:24:53;;;;;;;4.25;3.08;;;;;;;9.36;40.93;99100.33;1774871;79;21362;-50
2021/04/05 09:28:10;;;;;;;5.47;3.40;;;;;;;9.44;40.52;99106.17;1774295;79;21013;-48
2021/04/05 09:31:06;;;;;;;23.07;11.73;;;;;;;9.42;39.96;99106.71;1774473;79;21018;-48
2021/04/05 09:33:48;;;;;;;13.00;4.03;;;;;;;9.32;40.16;99096.10;1774608;79;21669;-49
2021/04/05 09:36:36;;;;;;;23.35;5.28;;;;;;;9.25;40.66;99096.02;1743920;79;20994;-47
2021/04/05 09:39:33;;;;;;;27.70;4.85;;;;;;;9.26;40.55;99088.82;1857562;74;22505;-47
2021/04/05 09:42:18;;;;;;;78.47;11.30;;;;;;;9.14;40.65;99085.00;1814697;77;20973;-50
2021/04/05 09:45:15;;;;;;;113.22;14.98;;;;;;;9.12;41.02;99084.22;1802674;77;21592;-47
2021/04/05 09:48:22;;;;;;;31.60;5.80;;;;;;;9.12;40.82;99081.05;1798753;78;21565;-48
2021/04/05 09:51:43;;;;;;;5.47;3.40;;;;;;;9.11;40.66;99076.63;1810242;77;21030;-49
2021/04/05 09:54:22;;;;;;;7.60;3.30;;;;;;;9.10;40.50;99069.97;1806215;77;21032;-47
2021/04/05 09:57:08;;;;;;;8.05;3.62;;;;;;;9.09;41.16;99067.77;1805341;77;21682;-49
2021/04/05 09:59:48;;;;;;;4.40;3.05;;;;;;;9.15;40.85;99069.23;1808764;77;21557;-48
2021/04/05 10:02:16;;;;;;;7.90;3.00;;;;;;;9.06;40.58;99071.98;1807763;77;21561;-48
2021/04/05 10:04:45;;;;;;;5.97;3.20;;;;;;;9.06;40.58;99071.98;1802285;77;21198;-49
2021/04/05 10:07:15;;;;;;;5.12;3.35;;;;;;;9.03;41.04;99068.58;1791519;78;21647;-49
2021/04/05 10:09:42;;;;;;;7.62;3.30;;;;;;;9.06;41.19;99067.08;1762615;78;21138;-47
2021/04/05 10:12:13;;;;;;;5.35;3.20;;;;;;;9.11;41.45;99070.39;1773313;78;21151;-49
2021/04/05 10:14:43;;;;;;;7.37;3.80;;;;;;;9.17;41.26;99063.31;1799229;77;21119;-48
2021/04/05 10:17:11;;;;;;;5.72;3.52;;;;;;;9.22;41.16;99066.62;1801182;77;21163;-47
2021/04/05 10:19:40;;;;;;;4.90;3.22;;;;;;;9.29;40.76;99054.55;1803932;77;21518;-48
2021/04/05 10:22:18;;;;;;;5.20;3.22;;;;;;;9.31;40.73;99044.56;1767798;77;21715;-49
2021/04/05 10:24:49;;;;;;;5.92;3.08;;;;;;;9.26;40.37;99046.64;1809251;77;21210;-47
2021/04/05 10:27:18;;;;;;;3.47;2.80;;;;;;;9.33;40.41;99044.50;1805000;77;21810;-50
2021/04/05 10:29:51;;;;;;;4.40;3.00;;;;;;;9.31;40.25;99038.31;1801085;77;21053;-48
2021/04/05 10:32:22;;;;;;;5.65;3.27;;;;;;;9.31;40.25;99038.31;1812497;77;21151;-49
2021/04/05 10:34:53;;;;;;;5.08;2.70;;;;;;;9.23;39.56;99032.03;1803047;78;21396;-47
2021/04/05 10:37:33;;;;;;;4.12;3.05;;;;;;;9.16;39.60;99036.00;1803447;77;22456;-48
2021/04/05 10:40:01;;;;;;;7.15;3.22;;;;;;;9.18;39.92;99030.08;1800905;77;21162;-48
2021/04/05 10:42:53;;;;;;;5.37;3.12;;;;;;;9.27;39.52;99024.19;1797320;78;21152;-49
2021/04/05 10:45:31;;;;;;;6.83;3.70;;;;;;;9.37;39.35;99017.30;1805041;78;22311;-49
2021/04/05 10:48:18;;;;;;;7.20;3.20;;;;;;;9.38;39.56;99019.06;1778377;79;20974;-49
2021/04/05 10:50:58;;;;;;;6.78;2.90;;;;;;;9.44;39.50;99013.80;1774078;80;21373;-49
2021/04/05 10:53:35;;;;;;;10.38;3.45;;;;;;;9.59;39.00;99003.98;1817465;76;22858;-54
2021/04/05 10:56:07;;;;;;;5.53;3.50;;;;;;;9.58;38.56;99004.43;1813778;79;20939;-49
2021/04/05 10:59:08;;;;;;;4.83;2.85;;;;;;;9.59;38.52;99002.64;1811609;79;21185;-50
2021/04/05 11:01:49;;;;;;;9.28;3.30;;;;;;;9.62;38.58;98997.92;1812007;79;20990;-48
2021/04/05 11:04:18;;;;;;;8.05;2.80;;;;;;;9.77;38.39;98992.12;1813775;79;20977;-49
2021/04/05 11:06:51;;;;;;;9.10;3.95;;;;;;;9.77;38.39;98992.12;1813164;77;20942;-51
2021/04/05 11:09:19;;;;;;;8.80;3.30;;;;;;;9.80;38.34;98997.34;1765871;77;20953;-50
2021/04/05 11:11:51;;;;;;;7.78;2.52;;;;;;;9.84;37.54;98993.48;1780370;77;22277;-49
2021/04/05 11:14:27;;;;;;;5.72;3.00;;;;;;;9.93;37.01;98983.52;1806819;76;22811;-49
2021/04/05 11:16:57;;;;;;;4.78;2.85;;;;;;;9.90;37.11;98972.91;1790953;78;20993;-51
2021/04/05 11:19:47;;;;;;;4.40;2.67;;;;;;;9.90;37.11;98972.91;1772497;79;21421;-52
2021/04/05 11:22:17;;;;;;;5.65;3.25;;;;;;;9.90;37.51;98976.95;1772857;79;20954;-48
2021/04/05 11:24:48;;;;;;;6.80;3.30;;;;;;;9.88;37.86;98980.22;1772664;79;20992;-51
2021/04/05 11:27:17;;;;;;;10.95;5.53;;;;;;;9.85;37.78;98968.27;1729554;81;21037;-49
2021/04/05 11:29:46;;;;;;;8.50;3.42;;;;;;;9.80;38.03;98965.02;1660032;82;21375;-49
2021/04/05 11:32:16;;;;;;;20.30;6.25;;;;;;;9.75;38.33;98971.16;1686472;81;21389;-48
2021/04/05 11:34:44;;;;;;;65.85;8.85;;;;;;;9.80;38.49;98965.47;1708817;83;21087;-50
2021/04/05 11:37:15;;;;;;;34.07;6.37;;;;;;;9.83;38.98;98959.92;1710251;82;21049;-49
2021/04/05 11:39:50;;;;;;;29.30;6.40;;;;;;;9.88;38.74;98958.68;1735691;81;21021;-50
2021/04/05 11:42:18;;;;;;;15.32;3.58;;;;;;;9.90;38.90;98954.05;1735276;82;22137;-50
2021/04/05 11:44:51;;;;;;;11.20;3.02;;;;;;;9.94;38.86;98952.92;1736618;81;21490;-49
2021/04/05 11:47:20;;;;;;;8.73;3.45;;;;;;;10.00;38.43;98942.73;1706065;82;21168;-49
2021/04/05 11:49:48;;;;;;;11.28;5.75;;;;;;;9.98;38.28;98936.97;1707913;82;21619;-47
2021/04/05 11:53:00;;;;;;;11.20;5.00;;;;;;;9.98;38.68;98939.66;1708866;82;21164;-56
2021/04/05 11:55:34;;;;;;;8.85;3.92;;;;;;;9.98;38.43;98932.92;1649468;85;21172;-52
2021/04/05 11:58:21;;;;;;;6.40;3.90;;;;;;;10.00;37.94;98929.27;1820781;77;22813;-50
2021/04/05 12:00:57;;;;;;;5.58;3.55;;;;;;;9.90;38.34;98932.52;1729003;80;21014;-51
2021/04/05 12:03:59;;;;;;;7.42;3.87;;;;;;;9.90;37.31;98923.57;1799390;77;22106;-50
2021/04/05 12:06:38;;;;;;;9.55;5.80;;;;;;;9.88;36.43;98916.94;1787500;77;21128;-50
2021/04/05 12:09:16;;;;;;;3.70;2.20;;;;;;;9.85;36.02;98913.07;1792162;77;20979;-52
2021/04/05 12:11:49;;;;;;;4.47;2.17;;;;;;;9.87;35.18;98912.52;1765615;78;21616;-48
2021/04/05 12:14:24;;;;;;;7.25;2.62;;;;;;;9.89;34.02;98913.28;1795153;77;21017;-50
2021/04/05 12:16:54;;;;;;;56.75;6.45;;;;;;;9.85;34.33;98906.34;1792650;77;21431;-53
2021/04/05 12:19:27;;;;;;;23.57;4.58;;;;;;;9.81;34.31;98895.39;1795721;77;21083;-54
2021/04/05 12:22:05;;;;;;;15.60;3.42;;;;;;;9.80;34.57;98878.86;1842911;74;23190;-52
2021/04/05 12:24:34;;;;;;;5.70;2.60;;;;;;;9.71;34.99;98886.14;1807158;77;20953;-50
2021/04/05 12:27:05;;;;;;;3.95;3.40;;;;;;;9.67;35.75;98887.27;1815770;77;21338;-51